Etusivu
METAR-TAF:

METAR-TAF

Lentoasemat :

Coleman, Texas, Yhdysvallat

Leveyspiiri: 31-50-28N, Pituuspiiri: 099-24-12W, korkeus merenpinnasta: 517 m

Tämänhetkinen sää

Tämä raportti tehtiin 18 minuuttia sitten, kello 04.34 UTC
tyyntä
Lämpötila 12°C
Kosteus 32%
Ilmanpaine 1026 hPa
Näkyvyys: 16.1 km
selkeää

METAR: KCOM 290434Z AUTO 00000KT 10SM CLR 12/M04 A3031 RMK AO2

Aika: 21:52 (04:52 UTC)


TAF: puuttuu

Säähavainnot ja -ennusteet yli 4000 lentoasemalta (METAR- ja TAF-raportit).

Käytössä olevat sääasemat on merkitty karttaan keltaisilla ja punaisilla pisteillä.

Aseta hiiri pisteen päälle nähdäksesi sääaseman nimen.

Klikkaa sitten nähdäksesi säähavainnot ja -ennusteet.

Kartan vaihtaminen: klikkaa mustalla rastilla varustettuja vihreitä pisteitä, niin voit zoomata sisään; viivalla varustettua vihreää pistettä, niin voit zoomata ulos tai vihreitä nuolia, niin pääset viereisille kartoille.


METAR-TAF: